Time;durP1;ratioP1;P1;durP2;ratioP2;P2;SDS_P1;SDS_P2;PMS_P1;PMS_P2;Temp;Humidity;BMP_temperature;BMP_pressure;BME280_temperature;BME280_humidity;BME280_pressure;Samples;Min_cycle;Max_cycle;Signal;HPM_P1;HPM_P2
2021/09/18 00:00:41;;;;;;;12.30;10.40;;;;;;;15.75;100.00;101086.19;4950805;29;20090;-82
2021/09/18 00:03:10;;;;;;;16.95;11.05;;;;;;;15.77;100.00;101079.91;4948732;28;20051;-81
2021/09/18 00:05:36;;;;;;;14.73;11.43;;;;;;;15.75;100.00;101076.50;4944199;28;20055;-82
2021/09/18 00:08:02;;;;;;;13.68;10.48;;;;;;;15.72;100.00;101079.31;4946730;28;20493;-82
2021/09/18 00:10:29;;;;;;;12.98;10.77;;;;;;;15.67;100.00;101060.28;4942834;29;20516;-83
2021/09/18 00:12:55;;;;;;;15.25;11.48;;;;;;;15.67;100.00;101070.78;4953732;28;20066;-81
2021/09/18 00:15:22;;;;;;;14.25;10.68;;;;;;;15.62;100.00;101068.41;4956485;28;20051;-80
2021/09/18 00:17:53;;;;;;;13.52;11.27;;;;;;;15.63;100.00;101061.38;4958356;28;20066;-80
2021/09/18 00:20:19;;;;;;;11.98;10.20;;;;;;;15.56;100.00;101058.22;4941715;28;20058;-80
2021/09/18 00:22:45;;;;;;;12.13;10.70;;;;;;;15.57;100.00;101073.06;4936669;29;20059;-80
2021/09/18 00:25:12;;;;;;;12.57;11.00;;;;;;;15.50;100.00;101058.53;4936347;29;20139;-81
2021/09/18 00:27:38;;;;;;;12.07;9.95;;;;;;;15.52;100.00;101065.41;4941246;29;20051;-82
2021/09/18 00:30:05;;;;;;;13.30;11.88;;;;;;;15.45;100.00;101064.06;4936636;29;20055;-84
2021/09/18 00:32:33;;;;;;;12.45;10.65;;;;;;;15.41;100.00;101059.88;4947101;28;20509;-81
2021/09/18 00:35:00;;;;;;;13.52;11.82;;;;;;;15.40;100.00;101063.44;4953242;28;20067;-82
2021/09/18 00:37:27;;;;;;;12.82;11.30;;;;;;;15.36;100.00;101065.38;4945430;29;20062;-82
2021/09/18 00:39:53;;;;;;;13.35;11.60;;;;;;;15.17;100.00;101036.59;4953562;28;20119;-81
2021/09/18 00:42:20;;;;;;;14.40;11.18;;;;;;;15.34;100.00;101058.50;4955721;28;20067;-80
2021/09/18 00:44:46;;;;;;;12.88;10.73;;;;;;;15.33;100.00;101065.56;4965186;28;20051;-84
2021/09/18 00:47:12;;;;;;;14.75;11.35;;;;;;;15.27;100.00;101052.72;4958368;29;20061;-81
2021/09/18 00:49:38;;;;;;;13.60;10.65;;;;;;;15.26;100.00;101065.94;4949297;28;20056;-81
2021/09/18 00:52:05;;;;;;;12.45;11.15;;;;;;;15.13;100.00;101039.44;4949295;29;20106;-80
2021/09/18 00:54:31;;;;;;;19.65;11.60;;;;;;;15.26;100.00;101065.94;4948898;29;20062;-83
2021/09/18 00:57:00;;;;;;;14.75;11.88;;;;;;;15.24;100.00;101070.44;4953514;28;20114;-82
2021/09/18 00:59:30;;;;;;;15.02;10.73;;;;;;;15.10;100.00;101066.75;4942508;29;20052;-84
2021/09/18 01:01:56;;;;;;;14.75;10.60;;;;;;;15.08;100.00;101073.00;4958195;28;20086;-83
2021/09/18 01:04:28;;;;;;;14.85;11.95;;;;;;;14.80;100.00;101032.34;4948935;28;20059;-85
2021/09/18 01:06:54;;;;;;;13.00;10.23;;;;;;;14.98;100.00;101075.25;4948164;28;20058;-86
2021/09/18 01:09:22;;;;;;;12.25;10.50;;;;;;;14.92;100.00;101067.69;4967521;28;20106;-83
2021/09/18 01:11:48;;;;;;;11.50;9.50;;;;;;;14.88;100.00;101070.47;4947212;28;20424;-85
2021/09/18 01:14:15;;;;;;;14.48;11.70;;;;;;;14.83;100.00;101064.59;4939390;29;20059;-82
2021/09/18 01:16:41;;;;;;;13.80;10.93;;;;;;;14.81;100.00;101060.34;4944888;29;20062;-83
2021/09/18 01:19:10;;;;;;;12.70;10.88;;;;;;;14.98;100.00;101072.63;4957499;29;20055;-82
2021/09/18 01:21:36;;;;;;;12.55;10.07;;;;;;;15.09;100.00;101083.44;4959584;29;20054;-85
2021/09/18 01:24:03;;;;;;;12.95;11.55;;;;;;;15.17;100.00;101077.78;4954999;28;20102;-86
2021/09/18 01:26:35;;;;;;;15.82;12.75;;;;;;;15.12;100.00;101054.34;4950444;29;20571;-84
2021/09/18 01:29:05;;;;;;;13.20;10.35;;;;;;;15.25;100.00;101073.00;4944244;28;20051;-82
2021/09/18 01:31:46;;;;;;;13.45;10.40;;;;;;;15.25;100.00;101059.84;4943963;28;20051;-81
2021/09/18 01:34:20;;;;;;;13.35;10.55;;;;;;;15.31;100.00;101066.56;4956320;28;20051;-85
2021/09/18 01:36:47;;;;;;;15.88;11.80;;;;;;;15.27;100.00;101065.88;4958128;29;20074;-83
2021/09/18 01:39:15;;;;;;;13.00;10.90;;;;;;;15.34;100.00;101075.16;4945568;28;20138;-83
2021/09/18 01:41:43;;;;;;;14.93;11.63;;;;;;;15.26;100.00;101065.94;4938065;29;20055;-81
2021/09/18 01:44:16;;;;;;;14.73;10.15;;;;;;;15.28;100.00;101072.84;4945651;29;20047;-81
2021/09/18 01:46:42;;;;;;;12.65;10.73;;;;;;;15.27;100.00;101076.41;4949628;29;20063;-79
2021/09/18 01:49:13;;;;;;;14.23;11.23;;;;;;;15.27;100.00;101083.41;4965046;29;20042;-79
2021/09/18 01:51:43;;;;;;;12.55;10.73;;;;;;;15.28;100.00;101079.88;4967319;29;20059;-79
2021/09/18 01:54:12;;;;;;;14.07;11.35;;;;;;;15.28;100.00;101079.88;4968829;28;20107;-81
2021/09/18 01:56:41;;;;;;;14.32;11.77;;;;;;;15.23;100.00;101081.88;4976809;29;20120;-78
2021/09/18 01:59:07;;;;;;;14.60;11.93;;;;;;;15.09;100.00;101054.53;4958687;29;20095;-78
2021/09/18 02:01:33;;;;;;;13.70;11.80;;;;;;;15.18;100.00;101069.84;4972001;28;20039;-78
2021/09/18 02:03:59;;;;;;;13.25;11.48;;;;;;;15.16;100.00;101065.56;4963232;28;20083;-79
2021/09/18 02:06:26;;;;;;;14.13;11.50;;;;;;;15.09;100.00;101053.66;4954154;29;20061;-80
2021/09/18 02:08:53;;;;;;;13.43;12.02;;;;;;;14.81;100.00;101007.78;4965750;28;20031;-77
2021/09/18 02:11:18;;;;;;;14.63;12.20;;;;;;;15.07;100.00;101047.66;4966430;28;20043;-80
2021/09/18 02:13:47;;;;;;;14.98;12.05;;;;;;;15.15;100.00;101069.16;4960450;28;20059;-79
2021/09/18 02:16:13;;;;;;;13.88;11.70;;;;;;;15.20;100.00;101067.97;4961007;29;20105;-81
2021/09/18 02:18:40;;;;;;;14.45;12.95;;;;;;;15.18;100.00;101074.22;4953648;28;20060;-81
2021/09/18 02:21:06;;;;;;;14.65;13.05;;;;;;;15.19;100.00;101068.88;4943052;29;20081;-81
2021/09/18 02:23:33;;;;;;;15.95;12.65;;;;;;;15.23;100.00;101074.84;4949104;29;20485;-86
2021/09/18 02:26:01;;;;;;;16.88;13.50;;;;;;;15.08;100.00;101054.63;4948826;29;20047;-86
2021/09/18 02:28:27;;;;;;;14.07;12.57;;;;;;;15.18;100.00;101068.97;4943744;29;20110;-86
2021/09/18 02:30:53;;;;;;;18.77;14.10;;;;;;;15.13;100.00;101049.97;4953581;28;20500;-83
2021/09/18 02:33:19;;;;;;;18.17;15.40;;;;;;;15.21;100.00;101061.78;4946842;28;20060;-85
2021/09/18 02:35:47;;;;;;;17.40;15.15;;;;;;;15.12;100.00;101066.66;4949722;28;20055;-83
2021/09/18 02:38:13;;;;;;;18.05;15.45;;;;;;;14.97;100.00;101063.03;4948744;28;20051;-83
2021/09/18 02:40:41;;;;;;;20.45;16.60;;;;;;;14.87;100.00;101063.50;4938615;29;20051;-83
2021/09/18 02:43:07;;;;;;;21.80;17.27;;;;;;;14.69;100.00;101054.75;4937289;29;20051;-83
2021/09/18 02:45:34;;;;;;;20.08;16.60;;;;;;;14.68;100.00;101060.09;4954775;28;20480;-81
2021/09/18 02:48:02;;;;;;;18.58;16.33;;;;;;;14.75;100.00;101072.00;4942417;29;20110;-81
2021/09/18 02:50:28;;;;;;;18.85;15.35;;;;;;;14.75;100.00;101058.03;4966064;28;20063;-81
2021/09/18 02:52:55;;;;;;;21.42;17.02;;;;;;;14.64;100.00;101048.00;4953438;29;20062;-81
2021/09/18 02:55:21;;;;;;;22.45;19.17;;;;;;;14.64;100.00;101062.00;4952445;29;20083;-82
2021/09/18 02:57:47;;;;;;;20.83;17.52;;;;;;;14.57;100.00;101064.09;4937326;29;20052;-81
2021/09/18 03:00:20;;;;;;;24.20;19.30;;;;;;;14.23;100.00;101021.06;4949376;28;20130;-82
2021/09/18 03:02:47;;;;;;;22.60;19.55;;;;;;;14.35;100.00;101052.91;4949048;28;20059;-81
2021/09/18 03:05:16;;;;;;;24.30;18.88;;;;;;;14.42;100.00;101067.44;4955830;28;20055;-83
2021/09/18 03:07:42;;;;;;;23.48;19.08;;;;;;;14.27;100.00;101045.41;4954431;28;20756;-85
2021/09/18 03:10:09;;;;;;;24.35;20.60;;;;;;;14.29;100.00;101045.31;4962545;28;20404;-84
2021/09/18 03:12:37;;;;;;;26.25;20.25;;;;;;;14.39;100.00;101065.81;4952743;28;20065;-81
2021/09/18 03:15:05;;;;;;;24.67;19.70;;;;;;;14.35;100.00;101058.16;4962269;28;20508;-81
2021/09/18 03:17:31;;;;;;;25.30;20.88;;;;;;;14.27;100.00;101052.41;4967254;28;20051;-80
2021/09/18 03:19:58;;;;;;;25.55;20.33;;;;;;;14.21;100.00;101045.72;4979379;28;20047;-85
2021/09/18 03:22:25;;;;;;;25.10;19.98;;;;;;;14.18;100.00;101044.06;4958353;29;20047;-80
2021/09/18 03:24:52;;;;;;;22.85;18.77;;;;;;;14.12;100.00;101039.09;4958989;29;20055;-82
2021/09/18 03:27:19;;;;;;;25.35;19.67;;;;;;;14.06;100.00;101036.75;4940923;29;20094;-81
2021/09/18 03:29:45;;;;;;;25.90;20.42;;;;;;;14.04;100.00;101039.47;4936647;29;20059;-81
2021/09/18 03:32:12;;;;;;;26.33;20.63;;;;;;;13.97;100.00;101034.59;4952170;28;20047;-81
2021/09/18 03:34:42;;;;;;;24.20;20.33;;;;;;;14.01;100.00;101037.00;4950190;29;20051;-82
2021/09/18 03:37:08;;;;;;;25.98;20.65;;;;;;;13.87;100.00;101023.69;4927143;29;20519;-81
2021/09/18 03:39:34;;;;;;;28.70;21.58;;;;;;;13.97;100.00;101047.72;4955901;29;20059;-83
2021/09/18 03:42:02;;;;;;;29.60;21.50;;;;;;;13.99;100.00;101045.84;4938766;28;20085;-80
2021/09/18 03:44:28;;;;;;;23.77;18.85;;;;;;;14.05;100.00;101051.69;4943206;28;20414;-84
2021/09/18 03:46:57;;;;;;;29.95;21.42;;;;;;;14.00;100.00;101040.56;4949348;28;20485;-83
2021/09/18 03:49:23;;;;;;;25.70;19.85;;;;;;;14.15;100.00;101051.25;4945178;29;20055;-84
2021/09/18 03:51:52;;;;;;;28.65;20.92;;;;;;;14.20;100.00;101049.25;4935138;29;20059;-81
2021/09/18 03:54:18;;;;;;;32.03;22.45;;;;;;;14.24;100.00;101048.16;4936557;29;20052;-83
2021/09/18 03:56:47;;;;;;;26.95;21.40;;;;;;;14.16;100.00;101037.19;4936401;29;20052;-82
2021/09/18 03:59:19;;;;;;;26.63;20.60;;;;;;;14.35;100.00;101058.16;4936692;29;20056;-83
2021/09/18 04:01:46;;;;;;;23.98;18.60;;;;;;;14.34;100.00;101051.19;4957451;28;20069;-82
2021/09/18 04:04:14;;;;;;;26.83;20.88;;;;;;;14.31;100.00;101043.50;4951531;28;20185;-83
2021/09/18 04:06:41;;;;;;;32.30;23.15;;;;;;;14.16;100.00;101045.91;4935548;29;20051;-83
2021/09/18 04:09:07;;;;;;;32.15;22.05;;;;;;;14.11;100.00;101039.19;4951825;29;20055;-84
2021/09/18 04:11:34;;;;;;;27.58;21.30;;;;;;;14.35;100.00;101063.41;4953226;28;20198;-84
2021/09/18 04:14:01;;;;;;;26.17;20.73;;;;;;;14.32;100.00;101047.78;4940264;28;20055;-85
2021/09/18 04:16:28;;;;;;;27.67;20.42;;;;;;;14.45;100.00;101059.41;4952822;29;20146;-84
2021/09/18 04:18:54;;;;;;;26.98;21.45;;;;;;;14.49;100.00;101058.34;4936019;29;20051;-83
2021/09/18 04:21:23;;;;;;;28.42;22.88;;;;;;;14.49;100.00;101062.72;4940332;29;20139;-84
2021/09/18 04:23:49;;;;;;;24.20;18.95;;;;;;;14.38;100.00;101039.66;4940979;29;20412;-83
2021/09/18 04:26:17;;;;;;;27.02;20.02;;;;;;;14.53;100.00;101064.31;4943312;29;20052;-82
2021/09/18 04:28:44;;;;;;;29.20;20.60;;;;;;;14.55;100.00;101060.66;4954474;29;20460;-83
2021/09/18 04:31:11;;;;;;;30.90;23.00;;;;;;;14.58;100.00;101054.41;4959539;28;20047;-83
2021/09/18 04:33:37;;;;;;;27.20;21.02;;;;;;;14.60;100.00;101070.09;4968001;28;20031;-82
2021/09/18 04:36:03;;;;;;;29.55;20.52;;;;;;;14.54;100.00;101069.47;4996554;28;20039;-81
2021/09/18 04:38:30;;;;;;;27.60;21.33;;;;;;;14.53;100.00;101073.03;4978124;28;20039;-82
2021/09/18 04:40:57;;;;;;;26.75;20.40;;;;;;;14.51;100.00;101068.78;4963763;28;20063;-81
2021/09/18 04:43:23;;;;;;;26.17;20.05;;;;;;;14.51;100.00;101067.00;4966508;28;20055;-81
2021/09/18 04:45:51;;;;;;;25.13;19.42;;;;;;;14.53;100.00;101070.38;4965717;28;20055;-82
2021/09/18 04:48:19;;;;;;;20.77;17.45;;;;;;;14.58;100.00;101067.53;4959711;28;20055;-81
2021/09/18 04:50:47;;;;;;;23.80;18.83;;;;;;;14.59;100.00;101069.25;4958816;28;20102;-82
2021/09/18 04:53:16;;;;;;;19.75;15.63;;;;;;;14.56;100.00;101069.38;4957085;29;20066;-83
2021/09/18 04:55:43;;;;;;;21.70;16.55;;;;;;;14.44;100.00;101056.84;4949733;28;20452;-82
2021/09/18 04:58:19;;;;;;;19.65;15.52;;;;;;;14.41;100.00;101063.97;4942424;29;20047;-83
2021/09/18 05:00:45;;;;;;;17.55;14.88;;;;;;;14.37;100.00;101070.28;4946586;28;20063;-83
2021/09/18 05:03:12;;;;;;;17.23;13.82;;;;;;;14.28;100.00;101048.88;4952605;29;20485;-82
2021/09/18 05:05:38;;;;;;;17.92;14.65;;;;;;;14.43;100.00;101063.03;4949102;28;20111;-81
2021/09/18 05:08:07;;;;;;;18.25;14.07;;;;;;;14.39;100.00;101064.94;4939957;29;20062;-82
2021/09/18 05:10:33;;;;;;;16.27;13.90;;;;;;;14.38;100.00;101065.91;4944831;28;20051;-83
2021/09/18 05:13:00;;;;;;;16.80;13.25;;;;;;;14.45;100.00;101069.06;4953279;29;20094;-82
2021/09/18 05:15:26;;;;;;;18.45;14.70;;;;;;;14.49;100.00;101071.47;4958226;28;20409;-80
2021/09/18 05:17:55;;;;;;;17.42;13.77;;;;;;;14.41;100.00;101057.88;4958835;28;20170;-81
2021/09/18 05:20:25;;;;;;;15.05;12.75;;;;;;;14.44;100.00;101070.84;4958950;28;20542;-81
2021/09/18 05:23:01;;;;;;;13.63;11.20;;;;;;;14.44;100.00;101068.22;4948361;29;20051;-80
2021/09/18 05:25:27;;;;;;;15.60;13.98;;;;;;;14.48;100.00;101076.81;4958099;28;20159;-82
2021/09/18 05:27:53;;;;;;;14.95;12.35;;;;;;;14.47;100.00;101069.84;4957668;28;20496;-85
2021/09/18 05:30:19;;;;;;;19.42;14.82;;;;;;;14.48;100.00;101061.91;4949049;28;20055;-84
2021/09/18 05:32:45;;;;;;;16.77;13.20;;;;;;;14.50;100.00;101062.69;4976525;28;20061;-81
2021/09/18 05:35:12;;;;;;;16.45;12.07;;;;;;;14.40;100.00;101043.03;4961016;28;20051;-84
2021/09/18 05:37:39;;;;;;;16.75;13.15;;;;;;;14.52;100.00;101054.72;4958499;29;20106;-80
2021/09/18 05:40:07;;;;;;;17.15;12.95;;;;;;;14.64;100.00;101063.78;4944436;28;20508;-81
2021/09/18 05:42:36;;;;;;;16.02;13.25;;;;;;;14.48;100.00;101050.56;4957470;28;20058;-83
2021/09/18 05:45:05;;;;;;;15.57;13.15;;;;;;;14.55;100.00;101072.97;4954819;28;20428;-82
2021/09/18 05:47:31;;;;;;;17.85;14.52;;;;;;;14.50;100.00;101073.19;4949576;29;20056;-82
2021/09/18 05:49:58;;;;;;;16.52;13.23;;;;;;;14.51;100.00;101071.41;4950301;29;20055;-81
2021/09/18 05:52:25;;;;;;;16.02;13.25;;;;;;;14.65;100.00;101078.63;4947514;28;20500;-82
2021/09/18 05:54:53;;;;;;;15.30;12.48;;;;;;;14.70;100.00;101081.91;4955345;29;20051;-82
2021/09/18 05:57:21;;;;;;;16.38;13.77;;;;;;;14.71;100.00;101073.94;4980874;28;20050;-82
2021/09/18 05:59:53;;;;;;;18.80;15.23;;;;;;;14.76;100.00;101085.97;4981105;28;20622;-82
2021/09/18 06:02:23;;;;;;;15.50;12.05;;;;;;;14.81;100.00;101076.94;4973453;28;20046;-82
2021/09/18 06:04:50;;;;;;;15.50;12.52;;;;;;;14.89;100.00;101076.56;4971568;28;20051;-79
2021/09/18 06:07:20;;;;;;;15.88;13.77;;;;;;;14.87;100.00;101088.94;4944361;28;20055;-80
2021/09/18 06:09:46;;;;;;;14.98;13.25;;;;;;;14.82;100.00;101086.53;4951556;28;20055;-79
2021/09/18 06:12:14;;;;;;;17.17;13.70;;;;;;;14.84;100.00;101081.19;4940231;28;20058;-81
2021/09/18 06:14:44;;;;;;;14.02;12.45;;;;;;;14.82;100.00;101077.81;4939917;29;20056;-80
2021/09/18 06:17:11;;;;;;;17.48;14.25;;;;;;;15.12;100.00;101091.16;4936518;29;20497;-81
2021/09/18 06:19:46;;;;;;;18.23;14.70;;;;;;;15.28;100.00;101093.88;4940907;29;20047;-79
2021/09/18 06:22:21;;;;;;;16.67;13.90;;;;;;;15.39;100.00;101087.19;4943223;29;20050;-79
2021/09/18 06:24:47;;;;;;;17.00;13.95;;;;;;;15.09;100.00;101037.88;4954222;28;20075;-80
2021/09/18 06:27:14;;;;;;;19.25;15.25;;;;;;;15.35;100.00;101089.13;4947246;29;20457;-82
2021/09/18 06:29:48;;;;;;;14.88;13.25;;;;;;;15.21;100.00;101080.19;4944359;28;20391;-83
2021/09/18 06:32:17;;;;;;;16.92;14.20;;;;;;;15.17;100.00;101088.31;4957373;28;20119;-86
2021/09/18 06:34:44;;;;;;;13.98;12.48;;;;;;;15.28;100.00;101079.88;4957270;28;20905;-81
2021/09/18 06:37:11;;;;;;;15.82;12.80;;;;;;;15.31;100.00;101069.19;4956857;29;20090;-81
2021/09/18 06:39:37;;;;;;;17.58;14.30;;;;;;;15.40;100.00;101087.09;4954479;28;20058;-79
2021/09/18 06:42:04;;;;;;;17.80;14.40;;;;;;;15.46;100.00;101093.84;4971580;29;20050;-80
2021/09/18 06:44:30;;;;;;;15.68;13.95;;;;;;;15.63;100.00;101096.44;4975833;28;20488;-83
2021/09/18 06:46:57;;;;;;;17.90;14.32;;;;;;;15.63;100.00;101087.69;4959326;29;20027;-80
2021/09/18 06:49:24;;;;;;;16.52;14.32;;;;;;;15.83;100.00;101099.81;4977962;28;20063;-80
2021/09/18 06:51:51;;;;;;;16.20;13.43;;;;;;;16.00;100.00;101105.03;4970895;28;20102;-81
2021/09/18 06:54:17;;;;;;;19.80;14.48;;;;;;;16.11;100.00;101087.78;4960515;29;20054;-80
2021/09/18 06:56:43;;;;;;;27.50;24.40;;;;;;;16.17;100.00;101101.47;4961801;29;20122;-82
2021/09/18 06:59:09;;;;;;;18.65;15.48;;;;;;;16.07;100.00;101080.97;4967903;28;20107;-81
2021/09/18 07:01:36;;;;;;;16.38;13.63;;;;;;;16.35;100.00;101089.97;4965966;28;20059;-82
2021/09/18 07:04:03;;;;;;;16.40;14.02;;;;;;;16.42;100.00;101092.19;4972586;28;20059;-81
2021/09/18 07:06:34;;;;;;;15.98;13.25;;;;;;;16.41;100.00;101092.28;4979950;28;20047;-80
2021/09/18 07:09:00;;;;;;;20.45;16.20;;;;;;;16.31;100.00;101076.97;4972756;29;20055;-80
2021/09/18 07:11:26;;;;;;;18.50;14.30;;;;;;;16.37;100.00;101083.69;4959662;29;20416;-79
2021/09/18 07:13:52;;;;;;;21.52;16.38;;;;;;;16.48;100.00;101098.91;4967053;28;20059;-83
2021/09/18 07:16:19;;;;;;;18.80;14.45;;;;;;;16.53;100.00;101095.97;4956994;28;20054;-82
2021/09/18 07:18:45;;;;;;;20.55;15.85;;;;;;;16.56;100.00;101088.75;4956772;28;20063;-81
2021/09/18 07:21:15;;;;;;;20.13;16.13;;;;;;;16.67;100.00;101101.31;4949143;28;20160;-82
2021/09/18 07:23:43;;;;;;;19.05;15.45;;;;;;;16.67;100.00;101092.56;4937802;29;20055;-83
2021/09/18 07:26:11;;;;;;;20.33;15.27;;;;;;;16.67;100.00;101111.03;4953117;29;20059;-83
2021/09/18 07:28:41;;;;;;;19.08;14.73;;;;;;;16.52;100.00;101097.78;4956474;28;20063;-81
2021/09/18 07:31:07;;;;;;;22.35;16.90;;;;;;;16.57;100.00;101102.78;4937593;29;20488;-81
2021/09/18 07:33:36;;;;;;;22.58;16.90;;;;;;;16.42;100.00;101099.25;4955836;28;20079;-81
2021/09/18 07:36:03;;;;;;;21.10;16.10;;;;;;;16.46;100.00;101098.97;4956196;28;20075;-80
2021/09/18 07:38:30;;;;;;;23.55;16.60;;;;;;;16.44;100.00;101094.72;4955158;29;20066;-81
2021/09/18 07:41:03;;;;;;;21.63;16.90;;;;;;;16.54;100.00;101109.09;4947662;28;20047;-81
2021/09/18 07:43:30;;;;;;;18.60;15.52;;;;;;;16.66;100.00;101099.59;4939843;28;20054;-81
2021/09/18 07:45:57;;;;;;;20.77;16.50;;;;;;;16.72;100.00;101094.00;4957032;28;20143;-82
2021/09/18 07:48:23;;;;;;;21.55;16.70;;;;;;;16.80;100.00;101102.31;4956622;28;20113;-83
2021/09/18 07:50:49;;;;;;;22.42;16.92;;;;;;;16.68;100.00;101083.72;4956393;28;20051;-81
2021/09/18 07:53:20;;;;;;;23.08;17.27;;;;;;;16.80;100.00;101114.66;4957318;28;20055;-81
2021/09/18 07:55:46;;;;;;;21.83;16.70;;;;;;;16.70;100.00;101109.06;4950394;29;20098;-81
2021/09/18 07:58:13;;;;;;;23.33;17.83;;;;;;;16.68;100.00;101110.91;4938843;29;20441;-80
2021/09/18 08:00:39;;;;;;;24.75;19.20;;;;;;;16.62;100.00;101106.88;4965498;28;20416;-81
2021/09/18 08:03:07;;;;;;;24.50;19.02;;;;;;;16.80;100.00;101106.75;4975526;28;20066;-80
2021/09/18 08:05:37;;;;;;;23.80;17.02;;;;;;;16.94;100.00;101100.69;4976775;28;20051;-81
2021/09/18 08:08:04;;;;;;;24.20;18.30;;;;;;;17.12;100.00;101099.63;4977990;28;20051;-79
2021/09/18 08:10:34;;;;;;;23.77;18.52;;;;;;;17.27;100.00;101099.63;4959104;28;20447;-82
2021/09/18 08:13:02;;;;;;;26.60;20.35;;;;;;;17.11;100.00;101094.41;4945661;28;20058;-80
2021/09/18 08:15:30;;;;;;;26.65;20.05;;;;;;;17.15;100.00;101079.25;4953429;29;20432;-78
2021/09/18 08:17:57;;;;;;;24.05;19.33;;;;;;;17.12;100.00;101104.03;4961990;29;20058;-78
2021/09/18 08:20:23;;;;;;;24.83;19.70;;;;;;;17.06;100.00;101104.41;4961157;29;20055;-80
2021/09/18 08:22:53;;;;;;;23.45;19.05;;;;;;;17.09;100.00;101101.59;4958995;28;20051;-81
2021/09/18 08:25:19;;;;;;;26.23;18.70;;;;;;;17.23;100.00;101104.22;4954569;28;20055;-81
2021/09/18 08:27:46;;;;;;;21.05;17.65;;;;;;;17.22;100.00;101091.13;4958867;28;20090;-80
2021/09/18 08:30:13;;;;;;;23.23;18.13;;;;;;;17.10;100.00;101096.22;4959164;28;20126;-82
2021/09/18 08:32:40;;;;;;;21.15;17.35;;;;;;;17.32;100.00;101094.94;4950258;29;20047;-82
2021/09/18 08:35:09;;;;;;;22.70;18.95;;;;;;;17.60;100.00;101095.88;4957506;28;20139;-80
2021/09/18 08:37:35;;;;;;;22.15;18.13;;;;;;;17.89;100.00;101091.44;4959196;28;20059;-84
2021/09/18 08:40:02;;;;;;;23.15;19.35;;;;;;;18.02;100.00;101107.38;4958173;29;20051;-82
2021/09/18 08:42:28;;;;;;;23.52;18.98;;;;;;;17.96;100.00;101099.00;4958573;29;20519;-79
2021/09/18 08:44:55;;;;;;;22.10;18.95;;;;;;;17.96;100.00;101093.72;4957332;28;20500;-81
2021/09/18 08:47:23;;;;;;;26.10;19.83;;;;;;;17.92;100.00;101099.16;4959015;28;20138;-81
2021/09/18 08:49:50;;;;;;;22.42;18.83;;;;;;;17.89;100.00;101083.53;4958989;28;20059;-82
2021/09/18 08:52:18;;;;;;;22.35;19.30;;;;;;;18.15;100.00;101086.31;4958697;29;20055;-82
2021/09/18 08:54:47;;;;;;;23.35;19.27;;;;;;;18.38;100.00;101091.91;4958521;28;20047;-82
2021/09/18 08:57:13;;;;;;;23.95;20.27;;;;;;;18.73;100.00;101107.25;4958250;29;20051;-86
2021/09/18 08:59:43;;;;;;;23.52;19.90;;;;;;;18.95;100.00;101098.78;4953293;28;20054;-79
2021/09/18 09:02:15;;;;;;;25.15;21.77;;;;;;;18.94;100.00;101097.06;4976621;28;20062;-81
2021/09/18 09:04:43;;;;;;;23.80;19.48;;;;;;;18.93;100.00;101092.75;4958719;28;20471;-83
2021/09/18 09:07:12;;;;;;;26.17;20.63;;;;;;;18.85;100.00;101095.88;4957265;29;20059;-79
2021/09/18 09:10:00;;;;;;;26.30;22.50;;;;;;;18.70;100.00;101083.66;4965998;28;20121;-84
2021/09/18 09:12:36;;;;;;;26.13;22.90;;;;;;;18.51;100.00;101092.81;4953242;29;20075;-82
2021/09/18 09:15:06;;;;;;;29.42;25.73;;;;;;;18.18;100.00;101080.84;4957340;28;20051;-78
2021/09/18 09:17:36;;;;;;;29.88;24.60;;;;;;;17.98;100.00;101083.91;4956021;28;20153;-82
2021/09/18 09:20:03;;;;;;;30.00;23.90;;;;;;;18.03;100.00;101082.66;4964549;28;20051;-80
2021/09/18 09:22:47;;;;;;;33.67;26.05;;;;;;;18.33;100.00;101092.19;4973316;29;20059;-81
2021/09/18 09:25:28;;;;;;;31.15;24.30;;;;;;;18.73;100.00;101092.22;4965987;29;20055;-78
2021/09/18 09:27:56;;;;;;;34.20;25.77;;;;;;;18.86;100.00;101086.97;4979172;28;20055;-78
2021/09/18 09:30:34;;;;;;;30.67;26.02;;;;;;;19.14;100.00;101079.00;4980734;28;20095;-78
2021/09/18 09:33:08;;;;;;;28.70;24.60;;;;;;;19.27;100.00;101089.59;4980257;28;20055;-81
2021/09/18 09:35:36;;;;;;;27.67;23.10;;;;;;;19.31;100.00;101093.72;4960538;28;20063;-82
2021/09/18 09:38:05;;;;;;;32.97;27.00;;;;;;;19.38;100.00;101092.34;4960791;28;20051;-82
2021/09/18 09:40:39;;;;;;;30.30;24.50;;;;;;;19.45;100.00;101077.72;4958945;28;20058;-81
2021/09/18 09:43:06;;;;;;;;;;;;;;;19.39;100.00;101086.09;4957323;29;20386;-82
2021/09/18 09:45:35;;;;;;;33.78;24.83;;;;;;;19.59;100.00;101087.38;4957998;29;19933;-81
2021/09/18 09:48:14;;;;;;;29.27;23.75;;;;;;;19.90;100.00;101085.22;4941056;29;20059;-82
2021/09/18 09:50:55;;;;;;;30.70;23.25;;;;;;;20.08;100.00;101068.94;4958408;28;20091;-83
2021/09/18 09:53:29;;;;;;;27.80;22.50;;;;;;;20.30;100.00;101077.03;4957496;28;20062;-82
2021/09/18 09:55:56;;;;;;;29.67;23.65;;;;;;;20.34;100.00;101080.31;4940460;29;20065;-82
2021/09/18 09:58:23;;;;;;;29.45;25.00;;;;;;;20.39;100.00;101075.50;4958020;28;20382;-82
2021/09/18 10:00:52;;;;;;;29.83;23.77;;;;;;;20.39;100.00;101067.53;4957594;29;20483;-83
2021/09/18 10:03:23;;;;;;;27.75;22.27;;;;;;;20.56;100.00;101070.75;4955493;29;20054;-81
2021/09/18 10:05:54;;;;;;;25.55;21.20;;;;;;;20.54;100.00;101068.19;4955760;29;20058;-81
2021/09/18 10:08:25;;;;;;;26.08;20.70;;;;;;;20.62;100.00;101067.66;4957772;28;20059;-83
2021/09/18 10:10:53;;;;;;;26.75;21.80;;;;;;;20.67;100.00;101068.16;4956520;28;20408;-81
2021/09/18 10:13:25;;;;;;;24.83;20.80;;;;;;;20.78;100.00;101057.59;4956193;28;20381;-81
2021/09/18 10:15:54;;;;;;;24.50;20.50;;;;;;;20.81;100.00;101048.56;4955182;29;20102;-81
2021/09/18 10:18:21;;;;;;;21.70;18.70;;;;;;;21.06;100.00;101070.59;4954489;29;20133;-82
2021/09/18 10:23:25;;;;;;;23.13;20.58;;;;;;;21.07;100.00;101064.31;4958176;29;20093;-82
2021/09/18 10:25:57;;;;;;;24.35;21.75;;;;;;;20.92;100.00;101064.53;4958069;29;20062;-85
2021/09/18 10:28:46;;;;;;;22.77;19.88;;;;;;;20.70;100.00;101019.31;4956583;28;20055;-80
2021/09/18 10:31:21;;;;;;;20.88;18.02;;;;;;;21.15;100.00;101056.59;4945510;28;20054;-81
2021/09/18 10:33:49;;;;;;;22.27;19.95;;;;;;;21.27;100.00;101052.97;4944685;29;20043;-82
2021/09/18 10:36:20;;;;;;;20.95;18.80;;;;;;;21.18;100.00;101059.00;4954671;29;20052;-80
2021/09/18 10:39:02;;;;;;;21.65;18.85;;;;;;;21.34;100.00;101055.16;4955824;29;20055;-81
2021/09/18 10:41:49;;;;;;;21.30;18.95;;;;;;;21.10;100.00;101050.78;4956971;28;20547;-81
2021/09/18 10:44:18;;;;;;;20.48;18.27;;;;;;;20.88;100.00;101060.38;4957247;28;20055;-82
2021/09/18 10:46:59;;;;;;;20.83;17.17;;;;;;;21.12;100.00;101056.84;4957146;29;20055;-79
2021/09/18 10:49:34;;;;;;;17.52;15.63;;;;;;;21.51;100.00;101048.53;4956027;29;20496;-79
2021/09/18 10:52:29;;;;;;;22.50;18.88;;;;;;;21.44;100.00;101058.78;4955152;29;20083;-79
2021/09/18 10:55:08;;;;;;;19.70;17.08;;;;;;;21.48;100.00;101044.28;4956009;29;20051;-79
2021/09/18 10:57:48;;;;;;;19.10;17.20;;;;;;;21.66;100.00;101051.81;4956234;28;20055;-79
2021/09/18 11:00:20;;;;;;;19.30;17.33;;;;;;;21.75;100.00;101049.25;4954834;28;20523;-79
2021/09/18 11:02:47;;;;;;;20.80;18.60;;;;;;;21.84;100.00;101042.34;4955537;28;20043;-79
2021/09/18 11:05:28;;;;;;;20.65;18.65;;;;;;;21.91;100.00;101051.53;4955038;28;20063;-80
2021/09/18 11:08:02;;;;;;;19.73;17.73;;;;;;;22.11;100.00;101045.56;4970785;28;20134;-79
2021/09/18 11:10:29;;;;;;;19.90;16.48;;;;;;;22.29;100.00;101045.84;4955333;29;20055;-80